Terminal Aerodrome Forecast
Issued by NWS

Home | Current Version | Previous Version | Text Only | Print | Product List | Glossary On
Versions: 1 2 3 4 5 6 7 8 9 10 11 12 13 14 15 16 17 18
000
FTUS44 KLIX 291136
TAFGPT
TAF
KGPT 291136Z 2912/3012 00000KT 1SM BR VV002
     FM291300 VRB03KT P6SM BKN050
     FM291400 VRB03KT P6SM SCT200
     FM292000 18007KT P6SM SCT250
     FM300300 VRB03KT P6SM FEW250=

USA.gov is the U.S. government's official web portal to all federal, state and local government web resources and services.